sensor_id;sensor_type;location;lat;lon;timestamp;P1;durP1;ratioP1;P2;durP2;ratioP2
1154;SDS011;566;48.414;9.118;2023-05-21T00:02:16;14.63;;;10.68;;
1154;SDS011;566;48.414;9.118;2023-05-21T00:04:44;16.92;;;11.63;;
1154;SDS011;566;48.414;9.118;2023-05-21T00:07:11;16.80;;;11.90;;
1154;SDS011;566;48.414;9.118;2023-05-21T00:09:36;20.48;;;12.65;;
1154;SDS011;566;48.414;9.118;2023-05-21T00:12:08;16.52;;;12.68;;
1154;SDS011;566;48.414;9.118;2023-05-21T00:14:34;19.23;;;12.77;;
1154;SDS011;566;48.414;9.118;2023-05-21T00:16:59;15.57;;;12.07;;
1154;SDS011;566;48.414;9.118;2023-05-21T00:19:25;15.38;;;11.80;;
1154;SDS011;566;48.414;9.118;2023-05-21T00:21:51;18.73;;;13.43;;
1154;SDS011;566;48.414;9.118;2023-05-21T00:24:16;17.23;;;12.40;;
1154;SDS011;566;48.414;9.118;2023-05-21T00:26:42;18.33;;;13.00;;
1154;SDS011;566;48.414;9.118;2023-05-21T00:29:08;17.55;;;13.43;;
1154;SDS011;566;48.414;9.118;2023-05-21T00:31:33;15.30;;;12.48;;
1154;SDS011;566;48.414;9.118;2023-05-21T00:33:59;15.02;;;12.43;;
1154;SDS011;566;48.414;9.118;2023-05-21T00:36:24;15.95;;;11.90;;
1154;SDS011;566;48.414;9.118;2023-05-21T00:38:50;15.73;;;12.30;;
1154;SDS011;566;48.414;9.118;2023-05-21T00:41:16;16.38;;;13.00;;
1154;SDS011;566;48.414;9.118;2023-05-21T00:43:42;16.80;;;12.32;;
1154;SDS011;566;48.414;9.118;2023-05-21T00:46:12;17.35;;;13.40;;
1154;SDS011;566;48.414;9.118;2023-05-21T00:48:40;18.95;;;14.80;;
1154;SDS011;566;48.414;9.118;2023-05-21T00:51:07;16.05;;;13.15;;
1154;SDS011;566;48.414;9.118;2023-05-21T00:53:33;21.55;;;13.98;;
1154;SDS011;566;48.414;9.118;2023-05-21T00:55:59;17.88;;;14.35;;
1154;SDS011;566;48.414;9.118;2023-05-21T00:58:26;18.98;;;13.57;;
1154;SDS011;566;48.414;9.118;2023-05-21T01:00:52;17.55;;;13.20;;
1154;SDS011;566;48.414;9.118;2023-05-21T01:03:21;16.02;;;13.07;;
1154;SDS011;566;48.414;9.118;2023-05-21T01:05:48;17.58;;;14.38;;
1154;SDS011;566;48.414;9.118;2023-05-21T01:08:17;24.70;;;15.48;;
1154;SDS011;566;48.414;9.118;2023-05-21T01:10:48;17.65;;;14.20;;
1154;SDS011;566;48.414;9.118;2023-05-21T01:13:14;16.20;;;13.20;;
1154;SDS011;566;48.414;9.118;2023-05-21T01:15:42;16.65;;;13.98;;
1154;SDS011;566;48.414;9.118;2023-05-21T01:18:08;21.75;;;14.75;;
1154;SDS011;566;48.414;9.118;2023-05-21T01:20:34;16.38;;;13.52;;
1154;SDS011;566;48.414;9.118;2023-05-21T01:23:01;16.48;;;14.00;;
1154;SDS011;566;48.414;9.118;2023-05-21T01:25:27;16.67;;;13.25;;
1154;SDS011;566;48.414;9.118;2023-05-21T01:27:52;18.63;;;14.20;;
1154;SDS011;566;48.414;9.118;2023-05-21T01:30:18;21.27;;;15.55;;
1154;SDS011;566;48.414;9.118;2023-05-21T01:35:32;21.80;;;15.00;;
1154;SDS011;566;48.414;9.118;2023-05-21T01:38:28;18.30;;;13.55;;
1154;SDS011;566;48.414;9.118;2023-05-21T01:41:02;18.48;;;13.55;;
1154;SDS011;566;48.414;9.118;2023-05-21T01:43:32;17.35;;;13.13;;
1154;SDS011;566;48.414;9.118;2023-05-21T01:46:00;19.67;;;14.90;;
1154;SDS011;566;48.414;9.118;2023-05-21T01:48:27;18.90;;;14.77;;
1154;SDS011;566;48.414;9.118;2023-05-21T01:50:53;18.83;;;14.57;;
1154;SDS011;566;48.414;9.118;2023-05-21T01:53:22;22.00;;;16.30;;
1154;SDS011;566;48.414;9.118;2023-05-21T01:55:47;17.67;;;14.25;;
1154;SDS011;566;48.414;9.118;2023-05-21T01:58:13;18.95;;;15.68;;
1154;SDS011;566;48.414;9.118;2023-05-21T02:00:43;22.55;;;16.38;;
1154;SDS011;566;48.414;9.118;2023-05-21T02:03:14;19.55;;;15.15;;
1154;SDS011;566;48.414;9.118;2023-05-21T02:05:40;18.52;;;15.18;;
1154;SDS011;566;48.414;9.118;2023-05-21T02:08:05;21.20;;;15.68;;
1154;SDS011;566;48.414;9.118;2023-05-21T02:10:32;19.02;;;14.50;;
1154;SDS011;566;48.414;9.118;2023-05-21T02:12:58;20.05;;;15.48;;
1154;SDS011;566;48.414;9.118;2023-05-21T02:15:24;21.30;;;15.30;;
1154;SDS011;566;48.414;9.118;2023-05-21T02:17:49;23.33;;;17.20;;
1154;SDS011;566;48.414;9.118;2023-05-21T02:20:15;20.60;;;16.30;;
1154;SDS011;566;48.414;9.118;2023-05-21T02:22:42;21.95;;;17.15;;
1154;SDS011;566;48.414;9.118;2023-05-21T02:25:12;19.58;;;15.70;;
1154;SDS011;566;48.414;9.118;2023-05-21T02:27:39;19.63;;;16.02;;
1154;SDS011;566;48.414;9.118;2023-05-21T02:30:06;20.50;;;15.55;;
1154;SDS011;566;48.414;9.118;2023-05-21T02:32:34;24.55;;;17.67;;
1154;SDS011;566;48.414;9.118;2023-05-21T02:35:00;27.77;;;18.80;;
1154;SDS011;566;48.414;9.118;2023-05-21T02:37:27;22.20;;;17.48;;
1154;SDS011;566;48.414;9.118;2023-05-21T02:39:54;21.27;;;17.05;;
1154;SDS011;566;48.414;9.118;2023-05-21T02:42:22;24.10;;;18.48;;
1154;SDS011;566;48.414;9.118;2023-05-21T02:44:48;24.27;;;16.70;;
1154;SDS011;566;48.414;9.118;2023-05-21T02:47:15;23.25;;;17.45;;
1154;SDS011;566;48.414;9.118;2023-05-21T02:49:41;23.10;;;18.85;;
1154;SDS011;566;48.414;9.118;2023-05-21T02:52:06;24.08;;;18.50;;
1154;SDS011;566;48.414;9.118;2023-05-21T02:54:32;25.45;;;18.80;;
1154;SDS011;566;48.414;9.118;2023-05-21T02:56:57;23.20;;;18.15;;
1154;SDS011;566;48.414;9.118;2023-05-21T02:59:23;23.65;;;17.42;;
1154;SDS011;566;48.414;9.118;2023-05-21T03:01:49;23.27;;;18.75;;
1154;SDS011;566;48.414;9.118;2023-05-21T03:04:14;23.75;;;18.52;;
1154;SDS011;566;48.414;9.118;2023-05-21T03:06:46;24.23;;;18.70;;
1154;SDS011;566;48.414;9.118;2023-05-21T03:09:12;26.52;;;20.13;;
1154;SDS011;566;48.414;9.118;2023-05-21T03:11:37;24.70;;;19.42;;
1154;SDS011;566;48.414;9.118;2023-05-21T03:14:03;24.15;;;18.50;;
1154;SDS011;566;48.414;9.118;2023-05-21T03:16:28;23.42;;;18.80;;
1154;SDS011;566;48.414;9.118;2023-05-21T03:18:58;25.63;;;19.30;;
1154;SDS011;566;48.414;9.118;2023-05-21T03:21:24;25.90;;;19.75;;
1154;SDS011;566;48.414;9.118;2023-05-21T03:23:50;24.23;;;19.45;;
1154;SDS011;566;48.414;9.118;2023-05-21T03:26:16;24.13;;;19.70;;
1154;SDS011;566;48.414;9.118;2023-05-21T03:28:42;23.75;;;18.80;;
1154;SDS011;566;48.414;9.118;2023-05-21T03:31:08;29.63;;;20.02;;
1154;SDS011;566;48.414;9.118;2023-05-21T03:33:33;27.85;;;21.33;;
1154;SDS011;566;48.414;9.118;2023-05-21T03:35:59;24.55;;;19.00;;
1154;SDS011;566;48.414;9.118;2023-05-21T03:38:24;21.80;;;17.60;;
1154;SDS011;566;48.414;9.118;2023-05-21T03:40:50;26.25;;;19.45;;
1154;SDS011;566;48.414;9.118;2023-05-21T03:43:15;25.70;;;20.60;;
1154;SDS011;566;48.414;9.118;2023-05-21T03:45:41;26.75;;;20.55;;
1154;SDS011;566;48.414;9.118;2023-05-21T03:48:06;28.65;;;20.88;;
1154;SDS011;566;48.414;9.118;2023-05-21T03:50:32;23.73;;;18.58;;
1154;SDS011;566;48.414;9.118;2023-05-21T03:52:57;20.20;;;17.17;;
1154;SDS011;566;48.414;9.118;2023-05-21T03:55:26;21.42;;;17.95;;
1154;SDS011;566;48.414;9.118;2023-05-21T03:57:51;22.85;;;17.73;;
1154;SDS011;566;48.414;9.118;2023-05-21T04:00:17;22.02;;;17.95;;
1154;SDS011;566;48.414;9.118;2023-05-21T04:02:42;21.75;;;17.83;;
1154;SDS011;566;48.414;9.118;2023-05-21T04:05:08;23.42;;;18.35;;
1154;SDS011;566;48.414;9.118;2023-05-21T04:07:34;22.10;;;17.33;;
1154;SDS011;566;48.414;9.118;2023-05-21T04:10:02;26.40;;;19.50;;
1154;SDS011;566;48.414;9.118;2023-05-21T04:12:28;23.90;;;18.27;;
1154;SDS011;566;48.414;9.118;2023-05-21T04:14:53;26.80;;;19.08;;
1154;SDS011;566;48.414;9.118;2023-05-21T04:17:19;25.95;;;19.67;;
1154;SDS011;566;48.414;9.118;2023-05-21T04:19:45;26.45;;;19.02;;
1154;SDS011;566;48.414;9.118;2023-05-21T04:22:11;25.65;;;20.00;;
1154;SDS011;566;48.414;9.118;2023-05-21T04:24:36;28.65;;;20.00;;
1154;SDS011;566;48.414;9.118;2023-05-21T04:27:02;26.35;;;19.15;;
1154;SDS011;566;48.414;9.118;2023-05-21T04:29:29;22.27;;;17.77;;
1154;SDS011;566;48.414;9.118;2023-05-21T04:31:54;24.33;;;18.10;;
1154;SDS011;566;48.414;9.118;2023-05-21T04:34:20;28.60;;;20.42;;
1154;SDS011;566;48.414;9.118;2023-05-21T04:36:46;23.35;;;17.73;;
1154;SDS011;566;48.414;9.118;2023-05-21T04:39:12;21.95;;;17.38;;
1154;SDS011;566;48.414;9.118;2023-05-21T04:41:38;20.45;;;16.05;;
1154;SDS011;566;48.414;9.118;2023-05-21T04:44:07;22.02;;;16.92;;
1154;SDS011;566;48.414;9.118;2023-05-21T04:46:33;21.45;;;16.95;;
1154;SDS011;566;48.414;9.118;2023-05-21T04:49:02;22.33;;;16.85;;
1154;SDS011;566;48.414;9.118;2023-05-21T04:51:28;20.20;;;15.32;;
1154;SDS011;566;48.414;9.118;2023-05-21T04:53:54;21.25;;;15.40;;
1154;SDS011;566;48.414;9.118;2023-05-21T04:56:20;18.45;;;15.63;;
1154;SDS011;566;48.414;9.118;2023-05-21T04:58:55;20.45;;;15.82;;
1154;SDS011;566;48.414;9.118;2023-05-21T05:01:22;20.15;;;15.65;;
1154;SDS011;566;48.414;9.118;2023-05-21T05:03:49;19.13;;;15.27;;
1154;SDS011;566;48.414;9.118;2023-05-21T05:06:15;21.75;;;15.98;;
1154;SDS011;566;48.414;9.118;2023-05-21T05:08:41;21.10;;;14.13;;
1154;SDS011;566;48.414;9.118;2023-05-21T05:11:06;19.27;;;15.43;;
1154;SDS011;566;48.414;9.118;2023-05-21T05:13:35;19.48;;;16.00;;
1154;SDS011;566;48.414;9.118;2023-05-21T05:16:00;17.50;;;14.55;;
1154;SDS011;566;48.414;9.118;2023-05-21T05:18:26;17.23;;;14.25;;
1154;SDS011;566;48.414;9.118;2023-05-21T05:20:51;18.83;;;13.52;;
1154;SDS011;566;48.414;9.118;2023-05-21T05:23:17;18.23;;;14.32;;
1154;SDS011;566;48.414;9.118;2023-05-21T05:25:43;18.00;;;14.65;;
1154;SDS011;566;48.414;9.118;2023-05-21T05:28:08;16.90;;;14.20;;
1154;SDS011;566;48.414;9.118;2023-05-21T05:30:34;16.10;;;13.05;;
1154;SDS011;566;48.414;9.118;2023-05-21T05:33:00;16.42;;;13.73;;
1154;SDS011;566;48.414;9.118;2023-05-21T05:35:25;20.08;;;15.27;;
1154;SDS011;566;48.414;9.118;2023-05-21T05:37:51;18.20;;;14.35;;
1154;SDS011;566;48.414;9.118;2023-05-21T05:40:16;18.00;;;14.65;;
1154;SDS011;566;48.414;9.118;2023-05-21T05:42:42;18.23;;;14.25;;
1154;SDS011;566;48.414;9.118;2023-05-21T05:45:07;18.67;;;14.10;;
1154;SDS011;566;48.414;9.118;2023-05-21T05:47:35;16.92;;;13.98;;
1154;SDS011;566;48.414;9.118;2023-05-21T05:50:01;18.27;;;14.55;;
1154;SDS011;566;48.414;9.118;2023-05-21T05:52:30;19.27;;;15.48;;
1154;SDS011;566;48.414;9.118;2023-05-21T05:54:56;20.35;;;15.27;;
1154;SDS011;566;48.414;9.118;2023-05-21T05:57:21;17.25;;;14.40;;
1154;SDS011;566;48.414;9.118;2023-05-21T05:59:47;19.67;;;14.80;;
1154;SDS011;566;48.414;9.118;2023-05-21T06:02:12;17.55;;;13.38;;
1154;SDS011;566;48.414;9.118;2023-05-21T06:04:38;20.33;;;15.88;;
1154;SDS011;566;48.414;9.118;2023-05-21T06:07:04;21.10;;;16.38;;
1154;SDS011;566;48.414;9.118;2023-05-21T06:09:29;19.60;;;14.88;;
1154;SDS011;566;48.414;9.118;2023-05-21T06:11:55;19.17;;;15.73;;
1154;SDS011;566;48.414;9.118;2023-05-21T06:14:20;19.65;;;16.08;;
1154;SDS011;566;48.414;9.118;2023-05-21T06:16:46;16.15;;;13.00;;
1154;SDS011;566;48.414;9.118;2023-05-21T06:19:11;16.23;;;13.35;;
1154;SDS011;566;48.414;9.118;2023-05-21T06:21:37;18.85;;;13.90;;
1154;SDS011;566;48.414;9.118;2023-05-21T06:24:03;18.02;;;14.95;;
1154;SDS011;566;48.414;9.118;2023-05-21T06:26:28;16.70;;;13.75;;
1154;SDS011;566;48.414;9.118;2023-05-21T06:28:54;17.73;;;13.80;;
1154;SDS011;566;48.414;9.118;2023-05-21T06:31:20;16.58;;;13.45;;
1154;SDS011;566;48.414;9.118;2023-05-21T06:33:46;16.85;;;14.15;;
1154;SDS011;566;48.414;9.118;2023-05-21T06:36:15;18.83;;;13.82;;
1154;SDS011;566;48.414;9.118;2023-05-21T06:38:41;16.45;;;13.93;;
1154;SDS011;566;48.414;9.118;2023-05-21T06:41:07;21.70;;;14.75;;
1154;SDS011;566;48.414;9.118;2023-05-21T06:43:32;20.15;;;14.88;;
1154;SDS011;566;48.414;9.118;2023-05-21T06:45:58;22.10;;;15.63;;
1154;SDS011;566;48.414;9.118;2023-05-21T06:48:23;19.48;;;14.90;;
1154;SDS011;566;48.414;9.118;2023-05-21T06:50:49;18.25;;;14.95;;
1154;SDS011;566;48.414;9.118;2023-05-21T06:53:17;18.17;;;15.93;;
1154;SDS011;566;48.414;9.118;2023-05-21T06:55:43;19.90;;;16.20;;
1154;SDS011;566;48.414;9.118;2023-05-21T06:58:09;23.30;;;15.15;;
1154;SDS011;566;48.414;9.118;2023-05-21T07:00:35;20.25;;;16.00;;
1154;SDS011;566;48.414;9.118;2023-05-21T07:03:01;19.08;;;16.55;;
1154;SDS011;566;48.414;9.118;2023-05-21T07:05:27;20.73;;;16.42;;
1154;SDS011;566;48.414;9.118;2023-05-21T07:07:54;17.25;;;14.55;;
1154;SDS011;566;48.414;9.118;2023-05-21T07:10:19;18.83;;;16.13;;
1154;SDS011;566;48.414;9.118;2023-05-21T07:12:45;17.48;;;14.57;;
1154;SDS011;566;48.414;9.118;2023-05-21T07:15:10;18.15;;;14.82;;
1154;SDS011;566;48.414;9.118;2023-05-21T07:17:36;18.75;;;14.30;;
1154;SDS011;566;48.414;9.118;2023-05-21T07:20:02;18.38;;;15.82;;
1154;SDS011;566;48.414;9.118;2023-05-21T07:22:36;19.63;;;15.27;;
1154;SDS011;566;48.414;9.118;2023-05-21T07:25:02;20.95;;;14.43;;
1154;SDS011;566;48.414;9.118;2023-05-21T07:27:29;17.65;;;14.00;;
1154;SDS011;566;48.414;9.118;2023-05-21T07:29:54;18.15;;;13.80;;
1154;SDS011;566;48.414;9.118;2023-05-21T07:32:20;17.10;;;13.82;;
1154;SDS011;566;48.414;9.118;2023-05-21T07:34:45;18.70;;;14.85;;
1154;SDS011;566;48.414;9.118;2023-05-21T07:37:11;17.45;;;12.70;;
1154;SDS011;566;48.414;9.118;2023-05-21T07:39:37;19.60;;;14.65;;
1154;SDS011;566;48.414;9.118;2023-05-21T07:42:03;17.15;;;12.93;;
1154;SDS011;566;48.414;9.118;2023-05-21T07:44:29;17.02;;;13.38;;
1154;SDS011;566;48.414;9.118;2023-05-21T07:46:58;19.83;;;14.23;;
1154;SDS011;566;48.414;9.118;2023-05-21T07:49:23;17.23;;;13.43;;
1154;SDS011;566;48.414;9.118;2023-05-21T07:51:49;16.83;;;13.43;;
1154;SDS011;566;48.414;9.118;2023-05-21T07:54:14;17.58;;;13.07;;
1154;SDS011;566;48.414;9.118;2023-05-21T07:56:40;15.68;;;13.10;;
1154;SDS011;566;48.414;9.118;2023-05-21T07:59:05;18.42;;;14.55;;
1154;SDS011;566;48.414;9.118;2023-05-21T08:01:34;20.17;;;14.57;;
1154;SDS011;566;48.414;9.118;2023-05-21T08:04:04;15.95;;;13.05;;
1154;SDS011;566;48.414;9.118;2023-05-21T08:06:30;17.58;;;13.98;;
1154;SDS011;566;48.414;9.118;2023-05-21T08:08:58;16.45;;;14.07;;
1154;SDS011;566;48.414;9.118;2023-05-21T08:11:25;15.07;;;12.45;;
1154;SDS011;566;48.414;9.118;2023-05-21T08:13:54;18.10;;;13.75;;
1154;SDS011;566;48.414;9.118;2023-05-21T08:16:20;15.13;;;12.43;;
1154;SDS011;566;48.414;9.118;2023-05-21T08:18:49;15.45;;;12.55;;
1154;SDS011;566;48.414;9.118;2023-05-21T08:21:15;17.17;;;13.15;;
1154;SDS011;566;48.414;9.118;2023-05-21T08:23:41;16.13;;;14.23;;
1154;SDS011;566;48.414;9.118;2023-05-21T08:26:07;20.30;;;13.80;;
1154;SDS011;566;48.414;9.118;2023-05-21T08:28:33;17.48;;;14.35;;
1154;SDS011;566;48.414;9.118;2023-05-21T08:31:02;17.40;;;14.98;;
1154;SDS011;566;48.414;9.118;2023-05-21T08:33:27;21.33;;;16.02;;
1154;SDS011;566;48.414;9.118;2023-05-21T08:35:53;19.10;;;15.25;;
1154;SDS011;566;48.414;9.118;2023-05-21T08:38:18;20.25;;;15.88;;
1154;SDS011;566;48.414;9.118;2023-05-21T08:40:47;18.98;;;15.60;;
1154;SDS011;566;48.414;9.118;2023-05-21T08:43:15;20.42;;;16.48;;
1154;SDS011;566;48.414;9.118;2023-05-21T08:45:43;18.60;;;16.10;;
1154;SDS011;566;48.414;9.118;2023-05-21T08:48:11;21.27;;;17.08;;
1154;SDS011;566;48.414;9.118;2023-05-21T08:50:40;19.15;;;15.82;;
1154;SDS011;566;48.414;9.118;2023-05-21T08:53:10;19.63;;;15.85;;
1154;SDS011;566;48.414;9.118;2023-05-21T08:55:36;16.13;;;13.57;;
1154;SDS011;566;48.414;9.118;2023-05-21T08:58:03;20.95;;;17.38;;
1154;SDS011;566;48.414;9.118;2023-05-21T09:00:28;16.95;;;14.90;;
1154;SDS011;566;48.414;9.118;2023-05-21T09:02:54;19.80;;;15.18;;
1154;SDS011;566;48.414;9.118;2023-05-21T09:05:20;16.58;;;14.38;;
1154;SDS011;566;48.414;9.118;2023-05-21T09:07:49;17.38;;;14.77;;
1154;SDS011;566;48.414;9.118;2023-05-21T09:10:25;18.60;;;16.33;;
1154;SDS011;566;48.414;9.118;2023-05-21T09:12:58;17.60;;;15.55;;
1154;SDS011;566;48.414;9.118;2023-05-21T09:15:25;17.90;;;14.88;;
1154;SDS011;566;48.414;9.118;2023-05-21T09:17:51;16.75;;;13.82;;
1154;SDS011;566;48.414;9.118;2023-05-21T09:20:16;15.88;;;14.18;;
1154;SDS011;566;48.414;9.118;2023-05-21T09:22:42;17.90;;;14.52;;
1154;SDS011;566;48.414;9.118;2023-05-21T09:25:24;17.60;;;15.30;;
1154;SDS011;566;48.414;9.118;2023-05-21T09:27:54;19.67;;;14.73;;
1154;SDS011;566;48.414;9.118;2023-05-21T09:30:22;16.98;;;15.18;;
1154;SDS011;566;48.414;9.118;2023-05-21T09:32:51;18.27;;;15.20;;
1154;SDS011;566;48.414;9.118;2023-05-21T09:35:23;18.67;;;15.73;;
1154;SDS011;566;48.414;9.118;2023-05-21T09:37:50;17.95;;;15.35;;
1154;SDS011;566;48.414;9.118;2023-05-21T09:42:47;20.42;;;14.60;;
1154;SDS011;566;48.414;9.118;2023-05-21T09:47:44;18.60;;;15.35;;
1154;SDS011;566;48.414;9.118;2023-05-21T09:50:11;19.52;;;14.02;;
1154;SDS011;566;48.414;9.118;2023-05-21T09:52:37;20.60;;;14.82;;
1154;SDS011;566;48.414;9.118;2023-05-21T09:55:04;17.02;;;14.27;;
1154;SDS011;566;48.414;9.118;2023-05-21T09:57:30;16.02;;;14.27;;
1154;SDS011;566;48.414;9.118;2023-05-21T09:59:56;17.98;;;14.30;;
1154;SDS011;566;48.414;9.118;2023-05-21T10:02:22;18.20;;;14.57;;
1154;SDS011;566;48.414;9.118;2023-05-21T10:04:50;14.05;;;12.40;;
1154;SDS011;566;48.414;9.118;2023-05-21T10:07:17;20.05;;;13.73;;
1154;SDS011;566;48.414;9.118;2023-05-21T10:09:46;16.30;;;13.13;;
1154;SDS011;566;48.414;9.118;2023-05-21T10:12:15;13.55;;;12.07;;
1154;SDS011;566;48.414;9.118;2023-05-21T10:14:43;17.15;;;11.77;;
1154;SDS011;566;48.414;9.118;2023-05-21T10:17:15;12.98;;;10.98;;
1154;SDS011;566;48.414;9.118;2023-05-21T10:19:41;20.38;;;13.05;;
1154;SDS011;566;48.414;9.118;2023-05-21T10:22:08;13.40;;;12.00;;
1154;SDS011;566;48.414;9.118;2023-05-21T10:24:34;13.07;;;11.30;;
1154;SDS011;566;48.414;9.118;2023-05-21T10:27:00;15.40;;;11.10;;
1154;SDS011;566;48.414;9.118;2023-05-21T10:29:27;19.30;;;12.10;;
1154;SDS011;566;48.414;9.118;2023-05-21T10:31:55;14.98;;;11.73;;
1154;SDS011;566;48.414;9.118;2023-05-21T10:34:21;14.68;;;11.15;;
1154;SDS011;566;48.414;9.118;2023-05-21T10:36:48;14.35;;;11.90;;
1154;SDS011;566;48.414;9.118;2023-05-21T10:39:16;14.23;;;12.38;;
1154;SDS011;566;48.414;9.118;2023-05-21T10:41:48;15.88;;;12.55;;
1154;SDS011;566;48.414;9.118;2023-05-21T10:50:21;14.10;;;11.43;;
1154;SDS011;566;48.414;9.118;2023-05-21T10:58:23;11.05;;;9.00;;
1154;SDS011;566;48.414;9.118;2023-05-21T11:03:34;13.43;;;10.52;;
1154;SDS011;566;48.414;9.118;2023-05-21T11:06:01;11.80;;;9.63;;
1154;SDS011;566;48.414;9.118;2023-05-21T11:08:30;11.95;;;8.95;;
1154;SDS011;566;48.414;9.118;2023-05-21T11:11:00;12.38;;;8.63;;
1154;SDS011;566;48.414;9.118;2023-05-21T11:13:26;12.70;;;10.13;;
1154;SDS011;566;48.414;9.118;2023-05-21T11:21:04;12.05;;;9.50;;
1154;SDS011;566;48.414;9.118;2023-05-21T11:26:26;11.93;;;9.07;;
1154;SDS011;566;48.414;9.118;2023-05-21T11:29:11;9.32;;;7.35;;
1154;SDS011;566;48.414;9.118;2023-05-21T11:31:46;9.32;;;7.25;;
1154;SDS011;566;48.414;9.118;2023-05-21T11:34:22;11.15;;;7.38;;
1154;SDS011;566;48.414;9.118;2023-05-21T11:37:38;9.07;;;6.88;;
1154;SDS011;566;48.414;9.118;2023-05-21T11:39:53;8.93;;;6.85;;
1154;SDS011;566;48.414;9.118;2023-05-21T11:42:26;11.55;;;8.10;;
1154;SDS011;566;48.414;9.118;2023-05-21T11:44:56;12.43;;;8.75;;
1154;SDS011;566;48.414;9.118;2023-05-21T11:47:23;11.73;;;10.40;;
1154;SDS011;566;48.414;9.118;2023-05-21T11:49:50;12.77;;;9.85;;
1154;SDS011;566;48.414;9.118;2023-05-21T11:52:15;15.73;;;10.45;;
1154;SDS011;566;48.414;9.118;2023-05-21T11:54:44;11.55;;;9.77;;
1154;SDS011;566;48.414;9.118;2023-05-21T11:57:12;13.98;;;11.38;;
1154;SDS011;566;48.414;9.118;2023-05-21T11:59:41;11.40;;;9.80;;
1154;SDS011;566;48.414;9.118;2023-05-21T12:02:06;13.30;;;10.88;;
1154;SDS011;566;48.414;9.118;2023-05-21T12:04:33;12.50;;;10.70;;
1154;SDS011;566;48.414;9.118;2023-05-21T12:07:03;13.98;;;10.88;;
1154;SDS011;566;48.414;9.118;2023-05-21T12:09:37;15.63;;;12.05;;
1154;SDS011;566;48.414;9.118;2023-05-21T12:12:15;13.07;;;10.02;;
1154;SDS011;566;48.414;9.118;2023-05-21T12:14:46;13.73;;;10.38;;
1154;SDS011;566;48.414;9.118;2023-05-21T12:17:20;13.32;;;9.57;;
1154;SDS011;566;48.414;9.118;2023-05-21T12:19:47;12.25;;;10.15;;
1154;SDS011;566;48.414;9.118;2023-05-21T12:22:13;11.65;;;9.52;;
1154;SDS011;566;48.414;9.118;2023-05-21T12:24:40;11.57;;;9.68;;
1154;SDS011;566;48.414;9.118;2023-05-21T12:27:07;14.38;;;10.68;;
1154;SDS011;566;48.414;9.118;2023-05-21T12:29:35;12.82;;;11.02;;
1154;SDS011;566;48.414;9.118;2023-05-21T12:32:06;12.57;;;10.10;;
1154;SDS011;566;48.414;9.118;2023-05-21T12:34:37;11.60;;;8.88;;
1154;SDS011;566;48.414;9.118;2023-05-21T12:37:17;12.27;;;9.40;;
1154;SDS011;566;48.414;9.118;2023-05-21T12:39:49;11.07;;;9.43;;
1154;SDS011;566;48.414;9.118;2023-05-21T12:42:16;11.98;;;9.52;;
1154;SDS011;566;48.414;9.118;2023-05-21T12:44:53;12.25;;;10.18;;
1154;SDS011;566;48.414;9.118;2023-05-21T12:47:23;14.38;;;9.48;;
1154;SDS011;566;48.414;9.118;2023-05-21T12:49:52;11.13;;;9.05;;
1154;SDS011;566;48.414;9.118;2023-05-21T12:52:22;14.90;;;9.57;;
1154;SDS011;566;48.414;9.118;2023-05-21T12:54:49;12.35;;;8.95;;
1154;SDS011;566;48.414;9.118;2023-05-21T12:57:17;10.73;;;8.75;;
1154;SDS011;566;48.414;9.118;2023-05-21T12:59:45;12.98;;;9.40;;
1154;SDS011;566;48.414;9.118;2023-05-21T13:02:14;9.98;;;8.10;;
1154;SDS011;566;48.414;9.118;2023-05-21T13:04:41;10.95;;;8.38;;
1154;SDS011;566;48.414;9.118;2023-05-21T13:07:06;10.70;;;8.55;;
1154;SDS011;566;48.414;9.118;2023-05-21T13:09:32;11.63;;;8.05;;
1154;SDS011;566;48.414;9.118;2023-05-21T13:12:00;9.65;;;7.82;;
1154;SDS011;566;48.414;9.118;2023-05-21T13:14:25;11.48;;;7.80;;
1154;SDS011;566;48.414;9.118;2023-05-21T13:16:51;10.88;;;8.68;;
1154;SDS011;566;48.414;9.118;2023-05-21T13:19:16;11.30;;;8.85;;
1154;SDS011;566;48.414;9.118;2023-05-21T13:21:42;11.73;;;8.00;;
1154;SDS011;566;48.414;9.118;2023-05-21T13:24:07;10.98;;;8.63;;
1154;SDS011;566;48.414;9.118;2023-05-21T13:26:33;12.65;;;9.27;;
1154;SDS011;566;48.414;9.118;2023-05-21T13:28:58;11.10;;;8.85;;
1154;SDS011;566;48.414;9.118;2023-05-21T13:31:24;11.38;;;9.00;;
1154;SDS011;566;48.414;9.118;2023-05-21T13:33:50;12.27;;;8.65;;
1154;SDS011;566;48.414;9.118;2023-05-21T13:36:15;12.30;;;9.02;;
1154;SDS011;566;48.414;9.118;2023-05-21T13:38:41;10.48;;;8.13;;
1154;SDS011;566;48.414;9.118;2023-05-21T13:41:07;12.15;;;8.63;;
1154;SDS011;566;48.414;9.118;2023-05-21T13:43:33;9.52;;;7.05;;
1154;SDS011;566;48.414;9.118;2023-05-21T13:45:58;10.43;;;8.57;;
1154;SDS011;566;48.414;9.118;2023-05-21T13:48:24;10.88;;;7.53;;
1154;SDS011;566;48.414;9.118;2023-05-21T13:50:50;10.02;;;8.48;;
1154;SDS011;566;48.414;9.118;2023-05-21T13:53:15;11.13;;;7.85;;
1154;SDS011;566;48.414;9.118;2023-05-21T13:55:41;11.02;;;7.63;;
1154;SDS011;566;48.414;9.118;2023-05-21T13:58:06;9.50;;;7.60;;
1154;SDS011;566;48.414;9.118;2023-05-21T14:00:32;10.88;;;8.18;;
1154;SDS011;566;48.414;9.118;2023-05-21T14:03:04;9.97;;;7.40;;
1154;SDS011;566;48.414;9.118;2023-05-21T14:05:31;11.18;;;7.65;;
1154;SDS011;566;48.414;9.118;2023-05-21T14:07:57;11.35;;;8.82;;
1154;SDS011;566;48.414;9.118;2023-05-21T14:10:22;12.18;;;8.68;;
1154;SDS011;566;48.414;9.118;2023-05-21T14:12:48;9.60;;;7.20;;
1154;SDS011;566;48.414;9.118;2023-05-21T14:15:13;9.18;;;7.78;;
1154;SDS011;566;48.414;9.118;2023-05-21T14:17:40;9.50;;;8.10;;
1154;SDS011;566;48.414;9.118;2023-05-21T14:20:06;9.43;;;7.75;;
1154;SDS011;566;48.414;9.118;2023-05-21T14:22:32;11.20;;;7.93;;
1154;SDS011;566;48.414;9.118;2023-05-21T14:24:57;10.52;;;7.80;;
1154;SDS011;566;48.414;9.118;2023-05-21T14:27:23;9.48;;;7.85;;
1154;SDS011;566;48.414;9.118;2023-05-21T14:29:49;11.65;;;8.35;;
1154;SDS011;566;48.414;9.118;2023-05-21T14:32:14;8.77;;;7.55;;
1154;SDS011;566;48.414;9.118;2023-05-21T14:34:42;9.02;;;7.25;;
1154;SDS011;566;48.414;9.118;2023-05-21T14:37:07;10.35;;;7.13;;
1154;SDS011;566;48.414;9.118;2023-05-21T14:39:33;10.93;;;8.27;;
1154;SDS011;566;48.414;9.118;2023-05-21T14:41:58;10.07;;;7.63;;
1154;SDS011;566;48.414;9.118;2023-05-21T14:44:26;11.30;;;7.63;;
1154;SDS011;566;48.414;9.118;2023-05-21T14:46:52;10.57;;;7.43;;
1154;SDS011;566;48.414;9.118;2023-05-21T14:49:17;14.15;;;7.53;;
1154;SDS011;566;48.414;9.118;2023-05-21T14:51:43;16.50;;;11.23;;
1154;SDS011;566;48.414;9.118;2023-05-21T14:54:08;12.00;;;7.95;;
1154;SDS011;566;48.414;9.118;2023-05-21T14:56:34;9.57;;;7.35;;
1154;SDS011;566;48.414;9.118;2023-05-21T14:59:00;12.35;;;7.28;;
1154;SDS011;566;48.414;9.118;2023-05-21T15:01:25;11.68;;;7.93;;
1154;SDS011;566;48.414;9.118;2023-05-21T15:03:51;10.73;;;7.43;;
1154;SDS011;566;48.414;9.118;2023-05-21T15:06:16;10.45;;;6.95;;
1154;SDS011;566;48.414;9.118;2023-05-21T15:08:42;9.35;;;6.97;;
1154;SDS011;566;48.414;9.118;2023-05-21T15:11:07;9.38;;;7.15;;
1154;SDS011;566;48.414;9.118;2023-05-21T15:13:33;11.40;;;9.38;;
1154;SDS011;566;48.414;9.118;2023-05-21T15:15:59;12.68;;;8.77;;
1154;SDS011;566;48.414;9.118;2023-05-21T15:18:25;12.25;;;9.30;;
1154;SDS011;566;48.414;9.118;2023-05-21T15:20:50;9.60;;;7.10;;
1154;SDS011;566;48.414;9.118;2023-05-21T15:23:16;10.40;;;8.00;;
1154;SDS011;566;48.414;9.118;2023-05-21T15:25:41;8.75;;;5.90;;
1154;SDS011;566;48.414;9.118;2023-05-21T15:28:07;8.85;;;6.13;;
1154;SDS011;566;48.414;9.118;2023-05-21T15:30:33;7.78;;;5.90;;
1154;SDS011;566;48.414;9.118;2023-05-21T15:32:58;9.80;;;5.38;;
1154;SDS011;566;48.414;9.118;2023-05-21T15:35:24;9.43;;;6.78;;